sensor_id;sensor_type;location;lat;lon;timestamp;P1;durP1;ratioP1;P2;durP2;ratioP2
47599;SDS011;33323;52.124;6.018;2022-07-23T00:01:40;3.85;;;1.80;;
47599;SDS011;33323;52.124;6.018;2022-07-23T00:04:07;4.20;;;2.63;;
47599;SDS011;33323;52.124;6.018;2022-07-23T00:06:35;2.70;;;1.70;;
47599;SDS011;33323;52.124;6.018;2022-07-23T00:09:02;3.03;;;2.05;;
47599;SDS011;33323;52.124;6.018;2022-07-23T00:11:30;4.20;;;1.60;;
47599;SDS011;33323;52.124;6.018;2022-07-23T00:13:56;3.22;;;1.33;;
47599;SDS011;33323;52.124;6.018;2022-07-23T00:16:24;2.47;;;1.73;;
47599;SDS011;33323;52.124;6.018;2022-07-23T00:18:51;3.50;;;1.75;;
47599;SDS011;33323;52.124;6.018;2022-07-23T00:21:18;3.35;;;1.98;;
47599;SDS011;33323;52.124;6.018;2022-07-23T00:23:45;5.72;;;1.95;;
47599;SDS011;33323;52.124;6.018;2022-07-23T00:26:12;4.03;;;2.50;;
47599;SDS011;33323;52.124;6.018;2022-07-23T00:28:40;3.22;;;1.52;;
47599;SDS011;33323;52.124;6.018;2022-07-23T00:31:07;2.28;;;1.60;;
47599;SDS011;33323;52.124;6.018;2022-07-23T00:33:34;3.60;;;1.80;;
47599;SDS011;33323;52.124;6.018;2022-07-23T00:36:01;3.95;;;2.22;;
47599;SDS011;33323;52.124;6.018;2022-07-23T00:38:29;4.90;;;2.28;;
47599;SDS011;33323;52.124;6.018;2022-07-23T00:40:56;5.10;;;2.50;;
47599;SDS011;33323;52.124;6.018;2022-07-23T00:43:23;4.57;;;2.65;;
47599;SDS011;33323;52.124;6.018;2022-07-23T00:45:51;6.10;;;2.15;;
47599;SDS011;33323;52.124;6.018;2022-07-23T00:48:18;3.60;;;2.55;;
47599;SDS011;33323;52.124;6.018;2022-07-23T00:50:45;5.38;;;2.28;;
47599;SDS011;33323;52.124;6.018;2022-07-23T00:53:12;4.55;;;2.45;;
47599;SDS011;33323;52.124;6.018;2022-07-23T00:55:39;3.08;;;2.40;;
47599;SDS011;33323;52.124;6.018;2022-07-23T00:58:07;3.00;;;1.63;;
47599;SDS011;33323;52.124;6.018;2022-07-23T01:00:35;3.75;;;2.28;;
47599;SDS011;33323;52.124;6.018;2022-07-23T01:03:02;2.80;;;2.25;;
47599;SDS011;33323;52.124;6.018;2022-07-23T01:05:29;7.47;;;1.58;;
47599;SDS011;33323;52.124;6.018;2022-07-23T01:07:56;3.88;;;2.58;;
47599;SDS011;33323;52.124;6.018;2022-07-23T01:10:24;4.32;;;2.47;;
47599;SDS011;33323;52.124;6.018;2022-07-23T01:12:58;3.55;;;1.60;;
47599;SDS011;33323;52.124;6.018;2022-07-23T01:15:31;2.53;;;1.50;;
47599;SDS011;33323;52.124;6.018;2022-07-23T01:18:01;4.40;;;1.60;;
47599;SDS011;33323;52.124;6.018;2022-07-23T01:20:30;3.13;;;1.65;;
47599;SDS011;33323;52.124;6.018;2022-07-23T01:22:57;5.95;;;1.60;;
47599;SDS011;33323;52.124;6.018;2022-07-23T01:25:25;2.45;;;1.40;;
47599;SDS011;33323;52.124;6.018;2022-07-23T01:27:56;2.08;;;1.60;;
47599;SDS011;33323;52.124;6.018;2022-07-23T01:30:23;2.55;;;1.80;;
47599;SDS011;33323;52.124;6.018;2022-07-23T01:32:50;2.88;;;1.48;;
47599;SDS011;33323;52.124;6.018;2022-07-23T01:35:18;2.10;;;1.48;;
47599;SDS011;33323;52.124;6.018;2022-07-23T01:37:46;3.10;;;1.75;;
47599;SDS011;33323;52.124;6.018;2022-07-23T01:40:14;2.45;;;1.40;;
47599;SDS011;33323;52.124;6.018;2022-07-23T01:42:42;3.20;;;1.80;;
47599;SDS011;33323;52.124;6.018;2022-07-23T01:45:11;3.05;;;1.77;;
47599;SDS011;33323;52.124;6.018;2022-07-23T01:47:43;4.13;;;1.85;;
47599;SDS011;33323;52.124;6.018;2022-07-23T01:50:10;4.18;;;1.92;;
47599;SDS011;33323;52.124;6.018;2022-07-23T01:52:55;2.90;;;1.40;;
47599;SDS011;33323;52.124;6.018;2022-07-23T01:55:23;3.08;;;1.70;;
47599;SDS011;33323;52.124;6.018;2022-07-23T01:57:51;2.20;;;1.80;;
47599;SDS011;33323;52.124;6.018;2022-07-23T02:00:21;2.47;;;1.55;;
47599;SDS011;33323;52.124;6.018;2022-07-23T02:02:50;3.42;;;2.38;;
47599;SDS011;33323;52.124;6.018;2022-07-23T02:05:17;4.60;;;2.42;;
47599;SDS011;33323;52.124;6.018;2022-07-23T02:07:45;3.67;;;1.80;;
47599;SDS011;33323;52.124;6.018;2022-07-23T02:10:12;4.97;;;2.05;;
47599;SDS011;33323;52.124;6.018;2022-07-23T02:12:39;6.88;;;1.80;;
47599;SDS011;33323;52.124;6.018;2022-07-23T02:15:08;2.65;;;2.00;;
47599;SDS011;33323;52.124;6.018;2022-07-23T02:17:38;4.93;;;2.03;;
47599;SDS011;33323;52.124;6.018;2022-07-23T02:20:07;3.75;;;1.77;;
47599;SDS011;33323;52.124;6.018;2022-07-23T02:22:36;2.10;;;1.73;;
47599;SDS011;33323;52.124;6.018;2022-07-23T02:25:05;4.00;;;1.83;;
47599;SDS011;33323;52.124;6.018;2022-07-23T02:27:33;4.05;;;1.58;;
47599;SDS011;33323;52.124;6.018;2022-07-23T02:30:04;1.88;;;1.33;;
47599;SDS011;33323;52.124;6.018;2022-07-23T02:32:33;5.13;;;1.42;;
47599;SDS011;33323;52.124;6.018;2022-07-23T02:35:01;1.27;;;1.13;;
47599;SDS011;33323;52.124;6.018;2022-07-23T02:37:30;4.75;;;1.10;;
47599;SDS011;33323;52.124;6.018;2022-07-23T02:39:58;1.98;;;1.40;;
47599;SDS011;33323;52.124;6.018;2022-07-23T02:42:25;2.20;;;1.50;;
47599;SDS011;33323;52.124;6.018;2022-07-23T02:44:52;3.50;;;1.55;;
47599;SDS011;33323;52.124;6.018;2022-07-23T02:47:20;2.85;;;1.70;;
47599;SDS011;33323;52.124;6.018;2022-07-23T02:49:47;2.22;;;1.23;;
47599;SDS011;33323;52.124;6.018;2022-07-23T02:52:14;2.15;;;1.90;;
47599;SDS011;33323;52.124;6.018;2022-07-23T02:54:41;5.22;;;1.65;;
47599;SDS011;33323;52.124;6.018;2022-07-23T02:57:12;3.03;;;1.42;;
47599;SDS011;33323;52.124;6.018;2022-07-23T02:59:41;2.08;;;1.20;;
47599;SDS011;33323;52.124;6.018;2022-07-23T03:02:08;3.28;;;1.30;;
47599;SDS011;33323;52.124;6.018;2022-07-23T03:04:36;1.70;;;1.30;;
47599;SDS011;33323;52.124;6.018;2022-07-23T03:07:03;4.57;;;1.88;;
47599;SDS011;33323;52.124;6.018;2022-07-23T03:09:31;5.03;;;1.42;;
47599;SDS011;33323;52.124;6.018;2022-07-23T03:11:58;2.50;;;1.25;;
47599;SDS011;33323;52.124;6.018;2022-07-23T03:14:25;3.08;;;1.20;;
47599;SDS011;33323;52.124;6.018;2022-07-23T03:16:55;2.67;;;2.00;;
47599;SDS011;33323;52.124;6.018;2022-07-23T03:19:22;4.13;;;1.08;;
47599;SDS011;33323;52.124;6.018;2022-07-23T03:21:49;4.53;;;1.13;;
47599;SDS011;33323;52.124;6.018;2022-07-23T03:24:16;2.88;;;1.10;;
47599;SDS011;33323;52.124;6.018;2022-07-23T03:26:45;2.05;;;1.35;;
47599;SDS011;33323;52.124;6.018;2022-07-23T03:29:12;2.20;;;1.55;;
47599;SDS011;33323;52.124;6.018;2022-07-23T03:31:41;2.95;;;0.98;;
47599;SDS011;33323;52.124;6.018;2022-07-23T03:34:08;4.47;;;1.45;;
47599;SDS011;33323;52.124;6.018;2022-07-23T03:36:35;1.85;;;1.45;;
47599;SDS011;33323;52.124;6.018;2022-07-23T03:39:03;1.67;;;1.52;;
47599;SDS011;33323;52.124;6.018;2022-07-23T03:41:31;4.15;;;2.15;;
47599;SDS011;33323;52.124;6.018;2022-07-23T03:43:58;2.22;;;1.13;;
47599;SDS011;33323;52.124;6.018;2022-07-23T03:46:26;4.40;;;1.50;;
47599;SDS011;33323;52.124;6.018;2022-07-23T03:48:53;2.65;;;1.73;;
47599;SDS011;33323;52.124;6.018;2022-07-23T03:51:24;3.70;;;2.05;;
47599;SDS011;33323;52.124;6.018;2022-07-23T03:53:51;4.07;;;1.75;;
47599;SDS011;33323;52.124;6.018;2022-07-23T03:56:18;2.05;;;1.60;;
47599;SDS011;33323;52.124;6.018;2022-07-23T03:58:45;2.03;;;1.48;;
47599;SDS011;33323;52.124;6.018;2022-07-23T04:01:12;2.55;;;1.40;;
47599;SDS011;33323;52.124;6.018;2022-07-23T04:03:40;1.90;;;1.20;;
47599;SDS011;33323;52.124;6.018;2022-07-23T04:06:07;2.80;;;1.20;;
47599;SDS011;33323;52.124;6.018;2022-07-23T04:08:35;3.55;;;1.42;;
47599;SDS011;33323;52.124;6.018;2022-07-23T04:11:02;1.40;;;1.17;;
47599;SDS011;33323;52.124;6.018;2022-07-23T04:13:32;2.60;;;1.33;;
47599;SDS011;33323;52.124;6.018;2022-07-23T04:16:01;5.20;;;1.30;;
47599;SDS011;33323;52.124;6.018;2022-07-23T04:18:30;2.75;;;1.30;;
47599;SDS011;33323;52.124;6.018;2022-07-23T04:21:05;4.93;;;1.58;;
47599;SDS011;33323;52.124;6.018;2022-07-23T04:23:33;2.92;;;1.50;;
47599;SDS011;33323;52.124;6.018;2022-07-23T04:26:00;4.38;;;1.65;;
47599;SDS011;33323;52.124;6.018;2022-07-23T04:28:29;1.80;;;1.65;;
47599;SDS011;33323;52.124;6.018;2022-07-23T04:30:57;2.10;;;1.50;;
47599;SDS011;33323;52.124;6.018;2022-07-23T04:33:25;2.00;;;1.17;;
47599;SDS011;33323;52.124;6.018;2022-07-23T04:35:55;1.77;;;1.30;;
47599;SDS011;33323;52.124;6.018;2022-07-23T04:38:22;2.15;;;1.67;;
47599;SDS011;33323;52.124;6.018;2022-07-23T04:40:52;3.90;;;2.05;;
47599;SDS011;33323;52.124;6.018;2022-07-23T04:43:19;7.70;;;1.95;;
47599;SDS011;33323;52.124;6.018;2022-07-23T04:45:49;6.78;;;1.95;;
47599;SDS011;33323;52.124;6.018;2022-07-23T04:48:16;2.65;;;1.98;;
47599;SDS011;33323;52.124;6.018;2022-07-23T04:50:44;6.07;;;2.20;;
47599;SDS011;33323;52.124;6.018;2022-07-23T04:53:21;2.55;;;1.45;;
47599;SDS011;33323;52.124;6.018;2022-07-23T04:55:50;6.30;;;1.85;;
47599;SDS011;33323;52.124;6.018;2022-07-23T04:58:19;2.80;;;1.90;;
47599;SDS011;33323;52.124;6.018;2022-07-23T05:00:47;3.97;;;1.80;;
47599;SDS011;33323;52.124;6.018;2022-07-23T05:03:15;2.70;;;1.88;;
47599;SDS011;33323;52.124;6.018;2022-07-23T05:05:45;1.52;;;1.20;;
47599;SDS011;33323;52.124;6.018;2022-07-23T05:08:14;2.28;;;1.33;;
47599;SDS011;33323;52.124;6.018;2022-07-23T05:10:43;7.32;;;1.95;;
47599;SDS011;33323;52.124;6.018;2022-07-23T05:13:10;5.07;;;1.85;;
47599;SDS011;33323;52.124;6.018;2022-07-23T05:15:37;2.55;;;2.13;;
47599;SDS011;33323;52.124;6.018;2022-07-23T05:18:04;6.60;;;3.33;;
47599;SDS011;33323;52.124;6.018;2022-07-23T05:20:31;2.47;;;1.85;;
47599;SDS011;33323;52.124;6.018;2022-07-23T05:22:58;4.93;;;1.90;;
47599;SDS011;33323;52.124;6.018;2022-07-23T05:25:25;4.03;;;2.08;;
47599;SDS011;33323;52.124;6.018;2022-07-23T05:27:53;3.20;;;2.15;;
47599;SDS011;33323;52.124;6.018;2022-07-23T05:30:20;5.25;;;2.85;;
47599;SDS011;33323;52.124;6.018;2022-07-23T05:32:50;2.70;;;1.67;;
47599;SDS011;33323;52.124;6.018;2022-07-23T05:35:19;4.65;;;2.08;;
47599;SDS011;33323;52.124;6.018;2022-07-23T05:38:01;2.92;;;1.70;;
47599;SDS011;33323;52.124;6.018;2022-07-23T05:40:28;2.95;;;1.95;;
47599;SDS011;33323;52.124;6.018;2022-07-23T05:42:56;3.30;;;2.28;;
47599;SDS011;33323;52.124;6.018;2022-07-23T05:45:23;3.42;;;1.77;;
47599;SDS011;33323;52.124;6.018;2022-07-23T05:47:51;1.95;;;1.65;;
47599;SDS011;33323;52.124;6.018;2022-07-23T05:50:25;4.20;;;3.00;;
47599;SDS011;33323;52.124;6.018;2022-07-23T05:53:00;4.47;;;3.45;;
47599;SDS011;33323;52.124;6.018;2022-07-23T05:55:27;4.97;;;2.70;;
47599;SDS011;33323;52.124;6.018;2022-07-23T05:57:58;6.07;;;3.17;;
47599;SDS011;33323;52.124;6.018;2022-07-23T06:00:26;6.60;;;2.97;;
47599;SDS011;33323;52.124;6.018;2022-07-23T06:02:55;6.03;;;3.72;;
47599;SDS011;33323;52.124;6.018;2022-07-23T06:05:23;4.68;;;2.80;;
47599;SDS011;33323;52.124;6.018;2022-07-23T06:07:52;5.38;;;3.28;;
47599;SDS011;33323;52.124;6.018;2022-07-23T06:10:22;4.78;;;2.50;;
47599;SDS011;33323;52.124;6.018;2022-07-23T06:12:49;6.03;;;3.38;;
47599;SDS011;33323;52.124;6.018;2022-07-23T06:15:17;9.32;;;2.70;;
47599;SDS011;33323;52.124;6.018;2022-07-23T06:17:45;5.10;;;3.30;;
47599;SDS011;33323;52.124;6.018;2022-07-23T06:20:13;4.43;;;2.30;;
47599;SDS011;33323;52.124;6.018;2022-07-23T06:22:41;7.15;;;3.00;;
47599;SDS011;33323;52.124;6.018;2022-07-23T06:25:08;5.18;;;3.03;;
47599;SDS011;33323;52.124;6.018;2022-07-23T06:27:44;5.93;;;2.65;;
47599;SDS011;33323;52.124;6.018;2022-07-23T06:30:13;6.93;;;2.20;;
47599;SDS011;33323;52.124;6.018;2022-07-23T06:32:44;3.80;;;2.13;;
47599;SDS011;33323;52.124;6.018;2022-07-23T06:35:13;6.57;;;3.22;;
47599;SDS011;33323;52.124;6.018;2022-07-23T06:37:41;6.78;;;2.17;;
47599;SDS011;33323;52.124;6.018;2022-07-23T06:40:09;5.75;;;2.28;;
47599;SDS011;33323;52.124;6.018;2022-07-23T06:42:36;6.50;;;1.95;;
47599;SDS011;33323;52.124;6.018;2022-07-23T06:45:06;2.85;;;1.52;;
47599;SDS011;33323;52.124;6.018;2022-07-23T06:47:35;2.92;;;1.95;;
47599;SDS011;33323;52.124;6.018;2022-07-23T06:50:03;3.35;;;2.10;;
47599;SDS011;33323;52.124;6.018;2022-07-23T06:52:32;7.47;;;2.58;;
47599;SDS011;33323;52.124;6.018;2022-07-23T06:54:58;2.92;;;2.63;;
47599;SDS011;33323;52.124;6.018;2022-07-23T06:57:25;2.22;;;1.55;;
47599;SDS011;33323;52.124;6.018;2022-07-23T06:59:54;4.72;;;1.65;;
47599;SDS011;33323;52.124;6.018;2022-07-23T07:02:21;4.05;;;2.00;;
47599;SDS011;33323;52.124;6.018;2022-07-23T07:04:49;8.35;;;2.05;;
47599;SDS011;33323;52.124;6.018;2022-07-23T07:07:16;3.08;;;1.63;;
47599;SDS011;33323;52.124;6.018;2022-07-23T07:09:43;3.28;;;1.50;;
47599;SDS011;33323;52.124;6.018;2022-07-23T07:12:13;4.82;;;1.38;;
47599;SDS011;33323;52.124;6.018;2022-07-23T07:14:40;4.95;;;1.60;;
47599;SDS011;33323;52.124;6.018;2022-07-23T07:17:07;1.33;;;0.90;;
47599;SDS011;33323;52.124;6.018;2022-07-23T07:19:37;20.08;;;1.83;;
47599;SDS011;33323;52.124;6.018;2022-07-23T07:22:04;4.15;;;1.23;;
47599;SDS011;33323;52.124;6.018;2022-07-23T07:24:30;3.60;;;1.00;;
47599;SDS011;33323;52.124;6.018;2022-07-23T07:27:03;6.47;;;1.17;;
47599;SDS011;33323;52.124;6.018;2022-07-23T07:29:30;2.33;;;1.10;;
47599;SDS011;33323;52.124;6.018;2022-07-23T07:31:57;2.67;;;1.38;;
47599;SDS011;33323;52.124;6.018;2022-07-23T07:34:24;2.90;;;1.40;;
47599;SDS011;33323;52.124;6.018;2022-07-23T07:36:51;3.25;;;1.00;;
47599;SDS011;33323;52.124;6.018;2022-07-23T07:39:18;7.32;;;2.05;;
47599;SDS011;33323;52.124;6.018;2022-07-23T07:41:45;4.07;;;1.48;;
47599;SDS011;33323;52.124;6.018;2022-07-23T07:44:12;4.15;;;1.15;;
47599;SDS011;33323;52.124;6.018;2022-07-23T07:46:39;2.97;;;1.45;;
47599;SDS011;33323;52.124;6.018;2022-07-23T07:49:06;2.38;;;1.17;;
47599;SDS011;33323;52.124;6.018;2022-07-23T07:51:40;2.55;;;0.90;;
47599;SDS011;33323;52.124;6.018;2022-07-23T07:54:10;1.15;;;0.82;;
47599;SDS011;33323;52.124;6.018;2022-07-23T07:56:40;2.10;;;1.05;;
47599;SDS011;33323;52.124;6.018;2022-07-23T07:59:07;3.65;;;1.20;;
47599;SDS011;33323;52.124;6.018;2022-07-23T08:01:36;7.68;;;1.23;;
47599;SDS011;33323;52.124;6.018;2022-07-23T08:04:03;2.50;;;1.38;;
47599;SDS011;33323;52.124;6.018;2022-07-23T08:06:31;1.52;;;0.93;;
47599;SDS011;33323;52.124;6.018;2022-07-23T08:08:58;4.80;;;1.52;;
47599;SDS011;33323;52.124;6.018;2022-07-23T08:11:25;3.38;;;1.20;;
47599;SDS011;33323;52.124;6.018;2022-07-23T08:13:51;5.10;;;1.48;;
47599;SDS011;33323;52.124;6.018;2022-07-23T08:16:18;2.40;;;1.25;;
47599;SDS011;33323;52.124;6.018;2022-07-23T08:18:45;3.63;;;1.20;;
47599;SDS011;33323;52.124;6.018;2022-07-23T08:21:12;3.55;;;1.95;;
47599;SDS011;33323;52.124;6.018;2022-07-23T08:23:39;2.42;;;0.88;;
47599;SDS011;33323;52.124;6.018;2022-07-23T08:26:06;6.05;;;1.17;;
47599;SDS011;33323;52.124;6.018;2022-07-23T08:28:33;1.27;;;0.60;;
47599;SDS011;33323;52.124;6.018;2022-07-23T08:31:00;2.15;;;1.17;;
47599;SDS011;33323;52.124;6.018;2022-07-23T08:33:28;2.42;;;0.80;;
47599;SDS011;33323;52.124;6.018;2022-07-23T08:35:59;2.65;;;1.15;;
47599;SDS011;33323;52.124;6.018;2022-07-23T08:38:29;3.92;;;0.65;;
47599;SDS011;33323;52.124;6.018;2022-07-23T08:40:58;2.17;;;0.80;;
47599;SDS011;33323;52.124;6.018;2022-07-23T08:43:26;3.42;;;0.73;;
47599;SDS011;33323;52.124;6.018;2022-07-23T08:45:56;7.57;;;0.88;;
47599;SDS011;33323;52.124;6.018;2022-07-23T08:48:30;5.50;;;1.10;;
47599;SDS011;33323;52.124;6.018;2022-07-23T08:51:01;2.67;;;0.90;;
47599;SDS011;33323;52.124;6.018;2022-07-23T08:53:31;1.52;;;0.82;;
47599;SDS011;33323;52.124;6.018;2022-07-23T08:56:00;2.05;;;0.60;;
47599;SDS011;33323;52.124;6.018;2022-07-23T08:58:30;2.92;;;0.60;;
47599;SDS011;33323;52.124;6.018;2022-07-23T09:00:58;1.88;;;0.80;;
47599;SDS011;33323;52.124;6.018;2022-07-23T09:03:27;1.33;;;0.80;;
47599;SDS011;33323;52.124;6.018;2022-07-23T09:05:58;3.08;;;0.85;;
47599;SDS011;33323;52.124;6.018;2022-07-23T09:08:34;3.35;;;1.27;;
47599;SDS011;33323;52.124;6.018;2022-07-23T09:11:06;4.07;;;0.45;;
47599;SDS011;33323;52.124;6.018;2022-07-23T09:13:48;3.72;;;1.40;;
47599;SDS011;33323;52.124;6.018;2022-07-23T09:16:28;3.05;;;0.80;;
47599;SDS011;33323;52.124;6.018;2022-07-23T09:19:02;1.65;;;0.50;;
47599;SDS011;33323;52.124;6.018;2022-07-23T09:24:03;1.05;;;0.60;;
47599;SDS011;33323;52.124;6.018;2022-07-23T09:26:43;2.92;;;0.68;;
47599;SDS011;33323;52.124;6.018;2022-07-23T09:31:52;4.32;;;2.22;;
47599;SDS011;33323;52.124;6.018;2022-07-23T09:34:24;4.35;;;1.10;;
47599;SDS011;33323;52.124;6.018;2022-07-23T09:37:10;2.35;;;0.88;;
47599;SDS011;33323;52.124;6.018;2022-07-23T09:39:47;5.40;;;1.00;;
47599;SDS011;33323;52.124;6.018;2022-07-23T09:44:44;1.60;;;0.70;;
47599;SDS011;33323;52.124;6.018;2022-07-23T09:47:20;5.18;;;1.30;;
47599;SDS011;33323;52.124;6.018;2022-07-23T09:50:02;2.47;;;0.60;;
47599;SDS011;33323;52.124;6.018;2022-07-23T09:55:09;2.47;;;1.00;;
47599;SDS011;33323;52.124;6.018;2022-07-23T09:57:38;1.80;;;0.55;;
47599;SDS011;33323;52.124;6.018;2022-07-23T10:00:09;1.20;;;0.60;;
47599;SDS011;33323;52.124;6.018;2022-07-23T10:02:37;1.38;;;0.57;;
47599;SDS011;33323;52.124;6.018;2022-07-23T10:05:25;2.15;;;0.63;;
47599;SDS011;33323;52.124;6.018;2022-07-23T10:08:20;2.45;;;0.82;;
47599;SDS011;33323;52.124;6.018;2022-07-23T10:11:08;2.42;;;0.47;;
47599;SDS011;33323;52.124;6.018;2022-07-23T10:13:52;1.33;;;0.68;;
47599;SDS011;33323;52.124;6.018;2022-07-23T10:16:38;1.65;;;0.82;;
47599;SDS011;33323;52.124;6.018;2022-07-23T10:19:05;2.70;;;0.70;;
47599;SDS011;33323;52.124;6.018;2022-07-23T10:21:44;3.15;;;0.93;;
47599;SDS011;33323;52.124;6.018;2022-07-23T10:39:31;1.38;;;0.57;;
47599;SDS011;33323;52.124;6.018;2022-07-23T10:42:10;2.58;;;0.73;;
47599;SDS011;33323;52.124;6.018;2022-07-23T10:44:41;3.05;;;0.88;;
47599;SDS011;33323;52.124;6.018;2022-07-23T10:47:25;2.40;;;0.68;;
47599;SDS011;33323;52.124;6.018;2022-07-23T10:58:00;2.50;;;0.95;;
47599;SDS011;33323;52.124;6.018;2022-07-23T11:00:29;2.92;;;0.73;;
47599;SDS011;33323;52.124;6.018;2022-07-23T11:02:58;3.08;;;1.25;;
47599;SDS011;33323;52.124;6.018;2022-07-23T11:08:12;1.60;;;0.80;;
47599;SDS011;33323;52.124;6.018;2022-07-23T11:13:36;3.60;;;1.00;;
47599;SDS011;33323;52.124;6.018;2022-07-23T11:16:14;2.50;;;0.82;;
47599;SDS011;33323;52.124;6.018;2022-07-23T11:23:59;2.80;;;1.00;;
47599;SDS011;33323;52.124;6.018;2022-07-23T11:31:52;2.85;;;0.98;;
47599;SDS011;33323;52.124;6.018;2022-07-23T11:34:29;2.95;;;1.00;;
47599;SDS011;33323;52.124;6.018;2022-07-23T11:37:00;5.55;;;1.23;;
47599;SDS011;33323;52.124;6.018;2022-07-23T11:39:31;1.08;;;0.70;;
47599;SDS011;33323;52.124;6.018;2022-07-23T11:42:00;4.85;;;1.00;;
47599;SDS011;33323;52.124;6.018;2022-07-23T11:44:32;2.95;;;1.15;;
47599;SDS011;33323;52.124;6.018;2022-07-23T11:47:08;2.45;;;0.98;;
47599;SDS011;33323;52.124;6.018;2022-07-23T11:49:36;2.08;;;1.00;;
47599;SDS011;33323;52.124;6.018;2022-07-23T11:52:10;1.17;;;0.80;;
47599;SDS011;33323;52.124;6.018;2022-07-23T11:54:54;2.00;;;1.00;;
47599;SDS011;33323;52.124;6.018;2022-07-23T11:57:26;2.22;;;0.95;;
47599;SDS011;33323;52.124;6.018;2022-07-23T12:00:09;1.40;;;0.90;;
47599;SDS011;33323;52.124;6.018;2022-07-23T12:02:42;2.65;;;1.58;;
47599;SDS011;33323;52.124;6.018;2022-07-23T12:05:13;2.08;;;0.75;;
47599;SDS011;33323;52.124;6.018;2022-07-23T12:07:52;1.83;;;0.90;;
47599;SDS011;33323;52.124;6.018;2022-07-23T12:10:22;3.13;;;1.15;;
47599;SDS011;33323;52.124;6.018;2022-07-23T12:12:55;1.20;;;1.08;;
47599;SDS011;33323;52.124;6.018;2022-07-23T12:15:26;3.40;;;1.10;;
47599;SDS011;33323;52.124;6.018;2022-07-23T12:17:59;1.88;;;0.85;;
47599;SDS011;33323;52.124;6.018;2022-07-23T12:20:31;1.48;;;0.95;;
47599;SDS011;33323;52.124;6.018;2022-07-23T12:23:05;4.00;;;0.98;;
47599;SDS011;33323;52.124;6.018;2022-07-23T12:25:34;1.70;;;1.02;;
47599;SDS011;33323;52.124;6.018;2022-07-23T12:28:09;3.20;;;1.00;;
47599;SDS011;33323;52.124;6.018;2022-07-23T12:30:45;2.40;;;0.95;;
47599;SDS011;33323;52.124;6.018;2022-07-23T12:33:34;3.42;;;0.90;;
47599;SDS011;33323;52.124;6.018;2022-07-23T12:36:06;1.88;;;0.90;;
47599;SDS011;33323;52.124;6.018;2022-07-23T12:41:07;4.38;;;1.02;;
47599;SDS011;33323;52.124;6.018;2022-07-23T12:43:38;3.80;;;1.10;;
47599;SDS011;33323;52.124;6.018;2022-07-23T12:46:09;1.23;;;0.88;;
47599;SDS011;33323;52.124;6.018;2022-07-23T12:49:00;2.05;;;1.15;;
47599;SDS011;33323;52.124;6.018;2022-07-23T12:51:28;3.72;;;1.30;;
47599;SDS011;33323;52.124;6.018;2022-07-23T12:54:06;3.28;;;1.65;;
47599;SDS011;33323;52.124;6.018;2022-07-23T12:56:37;3.55;;;1.30;;
47599;SDS011;33323;52.124;6.018;2022-07-23T12:59:14;3.30;;;1.48;;
47599;SDS011;33323;52.124;6.018;2022-07-23T13:01:54;3.17;;;1.55;;
47599;SDS011;33323;52.124;6.018;2022-07-23T13:04:25;2.20;;;1.10;;
47599;SDS011;33323;52.124;6.018;2022-07-23T13:06:55;2.28;;;0.73;;
47599;SDS011;33323;52.124;6.018;2022-07-23T13:09:26;1.70;;;0.70;;
47599;SDS011;33323;52.124;6.018;2022-07-23T13:12:04;2.63;;;1.00;;
47599;SDS011;33323;52.124;6.018;2022-07-23T13:14:31;3.95;;;1.23;;
47599;SDS011;33323;52.124;6.018;2022-07-23T13:16:58;2.47;;;1.20;;
47599;SDS011;33323;52.124;6.018;2022-07-23T13:19:25;1.98;;;0.98;;
47599;SDS011;33323;52.124;6.018;2022-07-23T13:21:53;2.63;;;1.30;;
47599;SDS011;33323;52.124;6.018;2022-07-23T13:24:20;1.95;;;1.25;;
47599;SDS011;33323;52.124;6.018;2022-07-23T13:26:48;4.47;;;1.33;;
47599;SDS011;33323;52.124;6.018;2022-07-23T13:29:18;3.45;;;1.08;;
47599;SDS011;33323;52.124;6.018;2022-07-23T13:31:46;1.75;;;1.05;;
47599;SDS011;33323;52.124;6.018;2022-07-23T13:34:16;5.22;;;1.42;;
47599;SDS011;33323;52.124;6.018;2022-07-23T13:36:43;2.67;;;1.35;;
47599;SDS011;33323;52.124;6.018;2022-07-23T13:39:11;2.35;;;1.23;;
47599;SDS011;33323;52.124;6.018;2022-07-23T13:41:38;3.20;;;1.17;;
47599;SDS011;33323;52.124;6.018;2022-07-23T13:44:05;4.78;;;1.75;;
47599;SDS011;33323;52.124;6.018;2022-07-23T13:46:33;1.83;;;1.15;;
47599;SDS011;33323;52.124;6.018;2022-07-23T13:49:01;1.73;;;0.90;;
47599;SDS011;33323;52.124;6.018;2022-07-23T13:51:32;3.42;;;0.85;;
47599;SDS011;33323;52.124;6.018;2022-07-23T13:53:59;2.17;;;1.30;;
47599;SDS011;33323;52.124;6.018;2022-07-23T13:56:26;3.78;;;0.82;;
47599;SDS011;33323;52.124;6.018;2022-07-23T13:58:53;1.23;;;0.95;;
47599;SDS011;33323;52.124;6.018;2022-07-23T14:01:20;1.80;;;0.90;;
47599;SDS011;33323;52.124;6.018;2022-07-23T14:03:47;2.88;;;1.30;;
47599;SDS011;33323;52.124;6.018;2022-07-23T14:06:14;1.98;;;1.05;;
47599;SDS011;33323;52.124;6.018;2022-07-23T14:08:42;2.30;;;1.00;;
47599;SDS011;33323;52.124;6.018;2022-07-23T14:11:11;4.65;;;1.20;;
47599;SDS011;33323;52.124;6.018;2022-07-23T14:13:38;3.50;;;1.27;;
47599;SDS011;33323;52.124;6.018;2022-07-23T14:16:06;3.72;;;1.08;;
47599;SDS011;33323;52.124;6.018;2022-07-23T14:18:34;1.77;;;0.90;;
47599;SDS011;33323;52.124;6.018;2022-07-23T14:21:01;2.72;;;1.15;;
47599;SDS011;33323;52.124;6.018;2022-07-23T14:23:29;2.25;;;1.08;;
47599;SDS011;33323;52.124;6.018;2022-07-23T14:25:56;3.05;;;1.08;;
47599;SDS011;33323;52.124;6.018;2022-07-23T14:28:23;0.85;;;0.68;;
47599;SDS011;33323;52.124;6.018;2022-07-23T14:30:50;2.78;;;1.15;;
47599;SDS011;33323;52.124;6.018;2022-07-23T14:33:18;2.83;;;1.35;;
47599;SDS011;33323;52.124;6.018;2022-07-23T14:35:46;3.35;;;1.05;;
47599;SDS011;33323;52.124;6.018;2022-07-23T14:38:13;5.95;;;1.23;;
47599;SDS011;33323;52.124;6.018;2022-07-23T14:40:40;3.65;;;2.38;;
47599;SDS011;33323;52.124;6.018;2022-07-23T14:43:08;3.28;;;1.50;;
47599;SDS011;33323;52.124;6.018;2022-07-23T14:45:37;2.58;;;0.80;;
47599;SDS011;33323;52.124;6.018;2022-07-23T14:48:05;2.47;;;1.45;;
47599;SDS011;33323;52.124;6.018;2022-07-23T14:50:33;2.05;;;1.40;;
47599;SDS011;33323;52.124;6.018;2022-07-23T14:53:01;4.30;;;1.55;;
47599;SDS011;33323;52.124;6.018;2022-07-23T14:55:28;5.28;;;1.20;;
47599;SDS011;33323;52.124;6.018;2022-07-23T14:57:58;4.30;;;1.23;;
47599;SDS011;33323;52.124;6.018;2022-07-23T15:00:26;1.92;;;1.27;;
47599;SDS011;33323;52.124;6.018;2022-07-23T15:02:53;1.30;;;1.00;;
47599;SDS011;33323;52.124;6.018;2022-07-23T15:05:21;2.25;;;1.25;;
47599;SDS011;33323;52.124;6.018;2022-07-23T15:07:50;3.53;;;1.48;;
47599;SDS011;33323;52.124;6.018;2022-07-23T15:10:18;2.90;;;1.25;;
47599;SDS011;33323;52.124;6.018;2022-07-23T15:12:47;1.50;;;1.30;;
47599;SDS011;33323;52.124;6.018;2022-07-23T15:15:15;2.13;;;1.17;;
47599;SDS011;33323;52.124;6.018;2022-07-23T15:17:44;2.17;;;1.00;;
47599;SDS011;33323;52.124;6.018;2022-07-23T15:20:11;5.10;;;1.40;;
47599;SDS011;33323;52.124;6.018;2022-07-23T15:22:43;1.95;;;1.30;;
47599;SDS011;33323;52.124;6.018;2022-07-23T15:25:11;2.85;;;1.20;;
47599;SDS011;33323;52.124;6.018;2022-07-23T15:27:38;5.53;;;1.42;;
47599;SDS011;33323;52.124;6.018;2022-07-23T15:30:06;2.55;;;1.13;;
47599;SDS011;33323;52.124;6.018;2022-07-23T15:32:33;2.17;;;0.98;;
47599;SDS011;33323;52.124;6.018;2022-07-23T15:35:00;4.03;;;1.40;;
47599;SDS011;33323;52.124;6.018;2022-07-23T15:37:31;4.07;;;1.20;;
47599;SDS011;33323;52.124;6.018;2022-07-23T15:40:00;4.35;;;1.40;;
47599;SDS011;33323;52.124;6.018;2022-07-23T15:42:30;3.63;;;1.20;;
47599;SDS011;33323;52.124;6.018;2022-07-23T15:44:57;3.45;;;1.38;;
47599;SDS011;33323;52.124;6.018;2022-07-23T15:47:24;3.08;;;1.23;;
47599;SDS011;33323;52.124;6.018;2022-07-23T15:49:51;7.07;;;1.17;;
47599;SDS011;33323;52.124;6.018;2022-07-23T15:52:18;1.67;;;1.15;;
47599;SDS011;33323;52.124;6.018;2022-07-23T15:54:47;3.78;;;0.90;;